San Francisco, CA (94105)

10:06 PM PDT on July 27, 2016 (GMT -0700)
Financial District | | Change Station

Elev 100 ft 37.79 °N, 122.40 °W | Updated 4 seconds ago

Scattered Clouds
Scattered Clouds
54.0 °F
Feels Like 54.0 °F
N
3.6
Wind Variable Wind from South
Gusts 4.3 mph

Today
High -- | Low -- °F
--% Chance of Precip.
Yesterday
High -- | Low -- °F
Precip. -- in
Pressure 29.91 in
Visibility 10.0 miles
Clouds Few 500 ft
Scattered Clouds 20000 ft
Dew Point 51 °F
Humidity 89%
Rainfall 0.00 in
Snow Depth Not available.
6:09 AM 8:22 PM
Waning Crescent, 36% visible
METAR KOAK 280453Z 30009KT 10SM FEW005 SCT200 15/13 A2991 RMK AO2 SLP128 T01500128
Pressure 29.91 in
Visibility 10.0 miles
Clouds Few 500 ft
Scattered Clouds 20000 ft
Dew Point 51 °F
Humidity 89%
Rainfall 0.00 in
Snow Depth Not available.
6:09 AM 8:22 PM
Waning Crescent, 36% visible
METAR KOAK 280453Z 30009KT 10SM FEW005 SCT200 15/13 A2991 RMK AO2 SLP128 T01500128

10-Day Weather Forecast

Almanac

Astronomy

Jul. 27, 2016 Rise Set
Actual Time
Civil Twilight
Nautical Twilight
Astronomical Twilight
Moon
Length of Visible Light
Length of Day
Tomorrow will be .
, % of the Moon is Illuminated

Today's Extremes

State Highs State Lows

Community

WunderPhotos

Upload Photos

1,928,060 photos uploaded!

WunderBlog® & News

Nearby

Air Quality

  Air Quality AQ Index Pollutant
Not available.

Snow Depth

Station Depth Elevation

Earthquake Activity

City Distance Mag. Time & Date
Minimum magnitude displayed is 2.5.

Coastal Water Temperatures

Place Temperature

Stations

Nearby Weather Stations

Station Location Temp. Windchill Dew Point Humidity Wind Precip. Elev Updated Type
                   

Watches & Warnings

There are currently no watches in effect.